Time;durP1;ratioP1;P1;durP2;ratioP2;P2;SDS_P1;SDS_P2;PMS_P1;PMS_P2;Temp;Humidity;BMP_temperature;BMP_pressure;BME280_temperature;BME280_humidity;BME280_pressure;Samples;Min_cycle;Max_cycle;Signal;HPM_P1;HPM_P2
2022/12/04 00:00:49;;;;;;;54.38;21.48;;;;;;;0.28;97.73;101457.03;4947872;28;20712;-74
2022/12/04 00:03:14;;;;;;;65.28;22.77;;;;;;;0.36;96.83;101448.13;4943090;28;20035;-74
2022/12/04 00:05:40;;;;;;;60.05;22.88;;;;;;;0.26;96.95;101452.00;4940935;28;20047;-74
2022/12/04 00:08:05;;;;;;;60.10;22.05;;;;;;;0.22;97.61;101439.47;4959198;28;20035;-75
2022/12/04 00:10:31;;;;;;;63.40;23.23;;;;;;;0.32;96.87;101448.31;4952570;28;20043;-75
2022/12/04 00:12:57;;;;;;;66.20;24.33;;;;;;;0.28;96.55;101442.53;4931018;28;20040;-77
2022/12/04 00:15:23;;;;;;;61.70;22.27;;;;;;;0.26;96.34;101439.22;4944350;28;20431;-77
2022/12/04 00:17:48;;;;;;;62.80;23.25;;;;;;;0.18;96.56;101431.94;4943210;28;20026;-77
2022/12/04 00:20:14;;;;;;;62.05;23.30;;;;;;;0.22;96.83;101435.19;4923908;28;20058;-77
2022/12/04 00:22:39;;;;;;;68.60;23.08;;;;;;;0.17;96.79;101426.91;4957087;28;20031;-77
2022/12/04 00:25:05;;;;;;;65.18;21.80;;;;;;;0.19;96.79;101432.81;4940404;28;20074;-77
2022/12/04 00:27:30;;;;;;;61.97;23.20;;;;;;;0.23;97.20;101436.00;4947109;28;20119;-76
2022/12/04 00:29:56;;;;;;;64.50;23.00;;;;;;;0.23;97.19;101433.44;4961571;28;20043;-77
2022/12/04 00:32:21;;;;;;;59.20;21.85;;;;;;;0.23;96.84;101431.75;4949046;28;20055;-75
2022/12/04 00:34:46;;;;;;;62.10;22.15;;;;;;;0.23;96.58;101420.69;4950160;28;20035;-74
2022/12/04 00:37:12;;;;;;;64.88;22.58;;;;;;;0.26;96.31;101428.22;4944450;28;20043;-74
2022/12/04 00:39:37;;;;;;;59.78;22.27;;;;;;;0.18;97.28;101431.94;4947225;28;20054;-75
2022/12/04 00:42:03;;;;;;;74.78;27.25;;;;;;;0.16;97.56;101422.72;4942892;28;20489;-74
2022/12/04 00:44:28;;;;;;;63.17;24.52;;;;;;;0.15;97.74;101424.47;4943450;28;20098;-75
2022/12/04 00:46:54;;;;;;;57.92;20.90;;;;;;;0.24;97.31;101424.91;4949156;28;20050;-75
2022/12/04 00:49:19;;;;;;;65.28;21.83;;;;;;;0.17;97.29;101416.72;4966699;28;20065;-75
2022/12/04 00:51:44;;;;;;;66.57;25.20;;;;;;;0.22;97.24;101413.97;4949356;28;20524;-75
2022/12/04 00:54:10;;;;;;;66.15;26.77;;;;;;;0.28;97.24;101406.00;4948566;28;20031;-74
2022/12/04 00:56:35;;;;;;;67.70;25.60;;;;;;;0.28;97.67;101413.66;4946927;28;20241;-76
2022/12/04 00:59:01;;;;;;;67.70;24.05;;;;;;;0.30;97.99;101411.84;4953510;28;20086;-76
2022/12/04 01:01:28;;;;;;;67.47;24.02;;;;;;;0.25;97.35;101413.81;4946686;28;20039;-76
2022/12/04 01:03:54;;;;;;;58.22;21.67;;;;;;;0.25;96.88;101418.94;4946489;28;20050;-76
2022/12/04 01:06:28;;;;;;;58.50;22.52;;;;;;;0.22;97.07;101417.31;4934092;28;20054;-74
2022/12/04 01:08:56;;;;;;;63.25;22.85;;;;;;;0.21;96.96;101420.78;4958579;28;20058;-75
2022/12/04 01:11:22;;;;;;;60.67;23.23;;;;;;;0.21;97.20;101432.69;4941693;28;20528;-75
2022/12/04 01:13:48;;;;;;;61.75;22.77;;;;;;;0.18;97.61;101429.41;4945338;28;20107;-76
2022/12/04 01:16:20;;;;;;;67.18;25.30;;;;;;;0.21;98.11;101425.03;4943518;28;20054;-75
2022/12/04 01:18:46;;;;;;;57.20;23.05;;;;;;;0.18;97.62;101426.03;4952532;28;20035;-75
2022/12/04 01:21:11;;;;;;;66.50;23.27;;;;;;;0.18;98.08;101421.75;4953512;28;20051;-75
2022/12/04 01:23:37;;;;;;;66.18;25.88;;;;;;;0.25;97.96;101424.03;4952186;28;20042;-76
2022/12/04 01:26:02;;;;;;;68.85;26.13;;;;;;;0.21;98.24;101423.34;4923225;29;20043;-74
2022/12/04 01:28:28;;;;;;;69.22;23.05;;;;;;;0.17;98.19;101421.81;4946092;28;20086;-75
2022/12/04 01:31:00;;;;;;;59.13;22.92;;;;;;;0.14;98.01;101422.81;4944520;28;20055;-75
2022/12/04 01:33:26;;;;;;;62.00;23.85;;;;;;;0.18;98.01;101428.59;4929527;29;20493;-74
2022/12/04 01:35:57;;;;;;;58.40;21.88;;;;;;;0.21;98.07;101425.91;4926480;28;20051;-75
2022/12/04 01:38:23;;;;;;;58.45;22.55;;;;;;;0.18;97.84;101426.03;4943739;28;20031;-75
2022/12/04 01:40:49;;;;;;;62.55;22.08;;;;;;;0.16;97.97;101423.56;4947158;28;20054;-75
2022/12/04 01:43:15;;;;;;;67.40;23.23;;;;;;;0.16;98.03;101422.72;4943162;28;20034;-75
2022/12/04 01:45:44;;;;;;;60.88;22.35;;;;;;;0.19;98.39;101427.69;4946087;28;20109;-75
2022/12/04 01:48:09;;;;;;;57.20;21.83;;;;;;;0.25;97.95;101427.41;4942459;28;20073;-75
2022/12/04 01:50:34;;;;;;;66.78;23.50;;;;;;;0.23;97.81;101423.25;4940989;28;20131;-74
2022/12/04 01:53:00;;;;;;;61.47;22.40;;;;;;;0.18;98.07;101419.19;4945815;28;20392;-75
2022/12/04 01:55:26;;;;;;;63.05;23.88;;;;;;;0.23;97.60;101413.03;4924029;28;20038;-75
2022/12/04 01:57:51;;;;;;;58.38;21.70;;;;;;;0.26;97.19;101413.72;4947157;28;20031;-75
2022/12/04 02:00:17;;;;;;;60.08;21.95;;;;;;;0.19;97.33;101425.16;4944345;28;20034;-76
2022/12/04 02:02:45;;;;;;;62.80;22.15;;;;;;;0.19;97.27;101412.41;4935278;28;20074;-75
2022/12/04 02:05:15;;;;;;;60.55;21.23;;;;;;;0.14;97.78;101410.03;4937762;28;20114;-75
2022/12/04 02:07:44;;;;;;;59.35;22.23;;;;;;;0.08;97.99;101406.97;4963292;28;20032;-75
2022/12/04 02:10:10;;;;;;;62.65;22.20;;;;;;;0.06;98.86;101403.66;4949347;28;20039;-75
2022/12/04 02:12:49;;;;;;;61.38;22.83;;;;;;;0.08;98.62;101394.22;4950703;28;20031;-76
2022/12/04 02:15:20;;;;;;;62.38;22.17;;;;;;;0.21;97.89;101399.53;4943681;28;20074;-75
2022/12/04 02:18:06;;;;;;;66.60;23.42;;;;;;;0.19;97.41;101407.28;4953936;28;20130;-75
2022/12/04 02:20:46;;;;;;;63.00;23.33;;;;;;;0.12;97.48;101401.66;4948021;28;20047;-75
2022/12/04 02:23:45;;;;;;;61.42;22.45;;;;;;;0.18;97.58;101411.53;4948261;28;20054;-75
2022/12/04 02:26:35;;;;;;;68.15;22.35;;;;;;;0.16;97.22;101407.44;4947544;28;20054;-75
2022/12/04 02:29:41;;;;;;;60.10;22.10;;;;;;;0.32;96.71;101402.41;4945657;28;20040;-74
2022/12/04 02:32:25;;;;;;;64.60;22.35;;;;;;;0.19;96.54;101399.63;4943918;28;20480;-75
2022/12/04 02:35:07;;;;;;;67.70;23.25;;;;;;;0.15;96.84;101408.31;4945020;28;20130;-75
2022/12/04 02:37:42;;;;;;;64.13;23.35;;;;;;;0.17;97.19;101402.25;4939232;28;20064;-75
2022/12/04 02:40:19;;;;;;;64.30;22.58;;;;;;;0.17;97.27;101404.81;4946558;28;20452;-74
2022/12/04 02:43:14;;;;;;;64.18;22.65;;;;;;;0.17;96.61;101389.50;4953462;28;20070;-75
2022/12/04 02:45:47;;;;;;;59.28;22.15;;;;;;;0.13;97.41;101394.81;4942868;28;20102;-75
2022/12/04 02:48:17;;;;;;;68.43;23.23;;;;;;;0.17;97.38;101402.25;4947976;28;20027;-75
2022/12/04 02:50:46;;;;;;;69.38;24.00;;;;;;;0.19;96.85;101400.47;4948526;28;20043;-75
2022/12/04 02:53:23;;;;;;;60.20;22.50;;;;;;;0.14;96.94;101404.94;4950297;28;20039;-75
2022/12/04 02:56:14;;;;;;;65.13;23.63;;;;;;;0.06;97.41;101403.66;4948560;28;20558;-75
2022/12/04 02:58:47;;;;;;;63.05;24.13;;;;;;;0.10;96.85;101398.34;4931038;28;20070;-75
2022/12/04 03:01:22;;;;;;;60.42;23.90;;;;;;;0.22;96.92;101406.31;4946435;28;20047;-75
2022/12/04 03:04:08;;;;;;;65.28;23.50;;;;;;;0.13;97.11;101399.91;4962041;28;20055;-74
2022/12/04 03:06:37;;;;;;;61.63;22.85;;;;;;;0.07;97.51;101397.66;4941583;28;20047;-76
2022/12/04 03:09:18;;;;;;;63.25;23.75;;;;;;;0.15;96.90;101401.50;4943299;28;20398;-75
2022/12/04 03:11:50;;;;;;;62.50;22.55;;;;;;;0.19;96.55;101405.56;4955785;28;20062;-75
2022/12/04 03:14:21;;;;;;;59.57;23.87;;;;;;;0.16;96.47;101400.59;4945484;28;20035;-75
2022/12/04 03:16:50;;;;;;;60.63;22.70;;;;;;;0.22;96.35;101401.22;4946211;28;20125;-75
2022/12/04 03:19:23;;;;;;;58.67;23.75;;;;;;;0.15;96.63;101408.31;4948650;28;20473;-75
2022/12/04 03:21:53;;;;;;;;;;;;;;;0.21;96.28;101407.19;4954408;28;20047;-75
2022/12/04 03:24:25;;;;;;;63.45;23.45;;;;;;;0.18;96.95;101411.53;4955048;28;19922;-75
2022/12/04 03:27:06;;;;;;;63.50;23.15;;;;;;;0.14;96.75;101411.78;4951122;28;20079;-74
2022/12/04 03:29:37;;;;;;;55.60;21.98;;;;;;;0.13;96.79;101403.31;4953556;28;20034;-74
2022/12/04 03:32:25;;;;;;;62.67;23.58;;;;;;;0.14;96.78;101401.56;4963903;28;20046;-75
2022/12/04 03:35:04;;;;;;;67.95;25.02;;;;;;;0.11;97.48;101402.53;4950703;28;20035;-76
2022/12/04 03:37:41;;;;;;;64.18;22.67;;;;;;;0.11;97.97;101401.72;4938764;28;20056;-74
2022/12/04 03:40:22;;;;;;;68.00;22.50;;;;;;;0.16;97.24;101408.25;4946987;28;20036;-75
2022/12/04 03:43:07;;;;;;;67.32;23.58;;;;;;;0.24;96.85;101401.94;4985547;28;20046;-75
2022/12/04 03:45:35;;;;;;;63.72;23.42;;;;;;;0.23;96.43;101405.38;4947375;28;20048;-75
2022/12/04 03:48:11;;;;;;;72.68;24.65;;;;;;;0.25;96.75;101395.97;4959850;28;20101;-75
2022/12/04 03:51:07;;;;;;;70.15;23.23;;;;;;;0.06;97.41;101394.28;4937956;28;20054;-75
2022/12/04 03:53:46;;;;;;;68.03;24.45;;;;;;;0.05;98.10;101395.19;4951228;28;20036;-75
2022/12/04 03:56:20;;;;;;;61.53;22.13;;;;;;;0.10;97.53;101406.00;4947056;28;20059;-76
2022/12/04 03:58:49;;;;;;;62.35;22.48;;;;;;;0.21;97.76;101407.19;4947505;28;20042;-75
2022/12/04 04:01:21;;;;;;;56.80;20.40;;;;;;;0.16;96.70;101405.69;4961376;28;20059;-75
2022/12/04 04:03:52;;;;;;;59.83;22.45;;;;;;;0.13;96.94;101400.75;4945975;28;20543;-74
2022/12/04 04:06:23;;;;;;;69.80;23.70;;;;;;;0.11;96.57;101404.25;4953253;28;20043;-75
2022/12/04 04:08:53;;;;;;;58.22;20.73;;;;;;;0.08;97.00;101399.31;4931021;28;20035;-75
2022/12/04 04:11:31;;;;;;;65.22;23.15;;;;;;;0.02;97.92;101399.59;4937522;28;20095;-75
2022/12/04 04:25:26;;;;;;;58.85;21.02;;;;;;;0.03;98.20;101399.53;4944866;28;20039;-75
2022/12/04 04:27:54;;;;;;;61.95;22.33;;;;;;;0.05;97.54;101402.00;4956642;28;20472;-75
2022/12/04 04:30:20;;;;;;;57.30;21.75;;;;;;;0.02;97.88;101403.00;4944804;28;20038;-75
2022/12/04 04:32:57;;;;;;;62.10;22.10;;;;;;;0.01;97.70;101398.78;4948708;28;20060;-75
2022/12/04 04:35:58;;;;;;;59.08;22.23;;;;;;;0.04;97.87;101396.09;4959896;28;20086;-75
2022/12/04 04:38:30;;;;;;;61.63;21.75;;;;;;;0.07;97.21;101398.47;4952360;28;20039;-75
2022/12/04 04:41:03;;;;;;;60.97;20.67;;;;;;;-0.01;97.20;101400.59;4948480;28;20051;-75
2022/12/04 04:43:53;;;;;;;62.35;23.13;;;;;;;-0.03;97.30;101404.94;4959742;28;20098;-75
2022/12/04 04:46:27;;;;;;;65.25;21.08;;;;;;;-0.07;97.77;101400.88;4943810;28;20043;-75
2022/12/04 04:48:57;;;;;;;57.08;22.70;;;;;;;-0.13;97.84;101401.16;4962731;28;20090;-75
2022/12/04 04:51:23;;;;;;;60.10;22.00;;;;;;;-0.09;97.63;101395.84;4944421;28;20047;-75
2022/12/04 04:53:52;;;;;;;54.88;22.25;;;;;;;-0.17;98.18;101400.50;4954721;28;20488;-74
2022/12/04 04:56:19;;;;;;;61.92;21.73;;;;;;;-0.21;98.03;101398.97;4951955;28;20065;-75
2022/12/04 04:58:44;;;;;;;59.50;22.20;;;;;;;-0.29;98.81;101403.59;4962798;28;20062;-74
2022/12/04 05:01:13;;;;;;;61.72;21.60;;;;;;;-0.30;98.33;101396.84;4952464;28;20047;-75
2022/12/04 05:03:40;;;;;;;58.40;21.73;;;;;;;-0.26;98.56;101393.28;4966889;28;20047;-75
2022/12/04 05:06:05;;;;;;;55.15;20.88;;;;;;;-0.38;98.71;101388.72;4957974;28;20479;-75
2022/12/04 05:08:31;;;;;;;58.90;21.15;;;;;;;-0.47;99.27;101387.41;4943361;28;20027;-75
2022/12/04 05:10:57;;;;;;;58.60;22.23;;;;;;;-0.56;99.42;101393.78;4946900;28;20532;-74
2022/12/04 05:13:22;;;;;;;62.10;23.65;;;;;;;-0.53;99.85;101398.72;4947015;28;20042;-75
2022/12/04 05:16:02;;;;;;;59.45;22.90;;;;;;;-0.57;99.72;101396.38;4951281;28;20485;-75
2022/12/04 05:18:28;;;;;;;60.45;21.75;;;;;;;-0.57;100.00;101386.19;4955850;28;20038;-75
2022/12/04 05:20:53;;;;;;;56.97;21.23;;;;;;;-0.61;100.00;101388.06;4951469;28;20055;-75
2022/12/04 05:23:19;;;;;;;55.35;20.80;;;;;;;-0.61;100.00;101393.16;4950146;28;20093;-74
2022/12/04 05:25:45;;;;;;;55.35;21.88;;;;;;;-0.51;100.00;101396.09;4944297;28;20067;-75
2022/12/04 05:28:11;;;;;;;61.97;21.27;;;;;;;-0.56;100.00;101391.22;4950113;28;20031;-75
2022/12/04 05:30:36;;;;;;;57.25;21.50;;;;;;;-0.57;100.00;101391.28;4937546;28;20047;-75
2022/12/04 05:33:02;;;;;;;62.42;21.90;;;;;;;-0.61;100.00;101388.88;4948099;28;20491;-75
2022/12/04 05:35:27;;;;;;;56.90;20.55;;;;;;;-0.60;100.00;101389.72;4942901;28;20685;-75
2022/12/04 05:37:53;;;;;;;59.10;23.45;;;;;;;-0.63;100.00;101387.31;4946188;28;20059;-75
2022/12/04 05:40:18;;;;;;;55.10;20.80;;;;;;;-0.68;100.00;101395.16;4942795;28;20039;-75
2022/12/04 05:42:44;;;;;;;55.58;21.52;;;;;;;-0.63;100.00;101389.84;4948113;28;20063;-74
2022/12/04 05:45:09;;;;;;;62.47;22.20;;;;;;;-0.66;100.00;101379.78;4957299;28;20727;-75
2022/12/04 05:47:39;;;;;;;54.22;19.75;;;;;;;-0.69;100.00;101373.13;4930685;28;20038;-74
2022/12/04 05:50:06;;;;;;;53.03;21.33;;;;;;;-0.67;100.00;101378.97;4934939;28;20544;-74
2022/12/04 05:52:32;;;;;;;54.00;20.27;;;;;;;-0.76;100.00;101381.94;4939600;28;20091;-75
2022/12/04 05:54:57;;;;;;;57.50;20.90;;;;;;;-0.76;100.00;101381.09;4948210;28;20034;-75
2022/12/04 05:57:23;;;;;;;59.47;22.23;;;;;;;-0.78;100.00;101383.72;4943292;28;20043;-75
2022/12/04 05:59:49;;;;;;;57.53;19.83;;;;;;;-0.73;100.00;101375.88;4970182;28;20566;-75
2022/12/04 06:02:15;;;;;;;55.33;20.40;;;;;;;-0.82;100.00;101383.03;4953551;28;20126;-75
2022/12/04 06:04:40;;;;;;;56.45;20.10;;;;;;;-0.85;100.00;101384.88;4941241;28;20118;-75
2022/12/04 06:07:06;;;;;;;51.90;20.17;;;;;;;-0.91;100.00;101385.16;4943120;28;20051;-75
2022/12/04 06:09:31;;;;;;;54.22;20.33;;;;;;;-0.85;100.00;101389.97;4947218;28;20063;-75
2022/12/04 06:11:57;;;;;;;46.88;18.65;;;;;;;-0.89;100.00;101386.72;4937530;28;20042;-74
2022/12/04 06:14:23;;;;;;;55.85;19.73;;;;;;;-0.89;100.00;101385.91;4943183;28;20125;-74
2022/12/04 06:16:48;;;;;;;54.90;18.40;;;;;;;-0.83;100.00;101388.19;4947325;28;20520;-74
2022/12/04 06:19:17;;;;;;;55.65;18.98;;;;;;;-0.86;100.00;101388.34;4931184;29;20280;-74
2022/12/04 06:21:44;;;;;;;47.20;18.20;;;;;;;-0.92;100.00;101391.13;4944907;28;20056;-75
2022/12/04 06:24:16;;;;;;;50.53;20.08;;;;;;;-0.89;100.00;101388.47;4942593;28;20031;-74
2022/12/04 06:26:41;;;;;;;54.58;20.48;;;;;;;-0.91;100.00;101391.06;4949384;28;20058;-75
2022/12/04 06:29:08;;;;;;;46.47;18.15;;;;;;;-0.92;100.00;101386.03;4940014;28;20043;-75
2022/12/04 06:31:35;;;;;;;53.58;19.23;;;;;;;-0.92;100.00;101391.97;4951454;28;20047;-74
2022/12/04 06:34:00;;;;;;;48.80;18.42;;;;;;;-0.90;100.00;101389.38;4940946;28;20092;-75
2022/12/04 06:36:26;;;;;;;47.88;17.83;;;;;;;-0.78;100.00;101396.44;4947790;28;20082;-75
2022/12/04 06:38:54;;;;;;;50.10;19.15;;;;;;;-0.81;100.00;101388.94;4946110;28;20476;-74
2022/12/04 06:41:20;;;;;;;50.72;18.33;;;;;;;-0.76;100.00;101392.13;4947827;28;20061;-75
2022/12/04 06:43:47;;;;;;;48.75;18.02;;;;;;;-0.79;100.00;101397.38;4949449;28;20038;-74
2022/12/04 06:46:16;;;;;;;45.20;16.50;;;;;;;-0.74;100.00;101404.78;4946640;28;20608;-75
2022/12/04 06:48:42;;;;;;;44.78;17.10;;;;;;;-0.79;100.00;101405.00;4943985;28;20035;-75
2022/12/04 06:51:15;;;;;;;46.75;17.42;;;;;;;-0.79;100.00;101403.28;4950591;28;20062;-75
2022/12/04 06:53:41;;;;;;;44.47;18.20;;;;;;;-0.78;100.00;101406.63;4948939;28;20070;-73
2022/12/04 06:56:09;;;;;;;49.58;18.10;;;;;;;-0.80;100.00;101400.78;4930828;28;20055;-75
2022/12/04 06:58:35;;;;;;;41.50;16.55;;;;;;;-0.76;100.00;101406.59;4948072;28;20043;-75
2022/12/04 07:01:14;;;;;;;42.25;16.42;;;;;;;-0.74;100.00;101409.88;4961037;28;20622;-75
2022/12/04 07:03:40;;;;;;;42.20;15.73;;;;;;;-0.72;100.00;101414.00;4948494;28;20031;-76
2022/12/04 07:06:19;;;;;;;43.85;16.33;;;;;;;-0.68;100.00;101420.63;4949631;28;20129;-75
2022/12/04 07:08:48;;;;;;;46.38;16.48;;;;;;;-0.69;100.00;101407.97;4941316;28;20054;-75
2022/12/04 07:11:15;;;;;;;36.95;14.95;;;;;;;-0.69;100.00;101416.44;4946246;28;20138;-75
2022/12/04 07:13:41;;;;;;;39.33;15.02;;;;;;;-0.67;100.00;101417.19;4949863;28;20404;-75
2022/12/04 07:16:09;;;;;;;41.22;16.30;;;;;;;-0.74;100.00;101415.78;4951208;28;20039;-75
2022/12/04 07:18:35;;;;;;;43.13;15.88;;;;;;;-0.73;100.00;101422.56;4947381;28;20382;-74
2022/12/04 07:21:06;;;;;;;40.58;16.23;;;;;;;-0.73;100.00;101414.09;4949463;28;20500;-75
2022/12/04 07:23:31;;;;;;;41.33;16.05;;;;;;;-0.72;100.00;101414.00;4946604;28;20038;-75
2022/12/04 07:25:57;;;;;;;37.97;15.77;;;;;;;-0.72;100.00;101410.63;4964339;28;20039;-75
2022/12/04 07:28:22;;;;;;;40.58;16.05;;;;;;;-0.74;100.00;101417.53;4953892;28;20416;-75
2022/12/04 07:30:48;;;;;;;51.28;17.02;;;;;;;-0.76;100.00;101422.69;4945604;28;20050;-75
2022/12/04 07:33:13;;;;;;;43.20;16.83;;;;;;;-0.74;100.00;101420.06;4947729;28;20038;-74
2022/12/04 07:35:39;;;;;;;38.95;15.25;;;;;;;-0.67;100.00;101429.91;4964359;28;20055;-75
2022/12/04 07:38:04;;;;;;;44.97;16.55;;;;;;;-0.71;100.00;101425.84;4949310;28;20035;-75
2022/12/04 07:40:30;;;;;;;35.97;15.38;;;;;;;-0.72;100.00;101434.38;4947857;28;20066;-75
2022/12/04 07:42:55;;;;;;;46.00;17.05;;;;;;;-0.71;100.00;101438.59;4949397;28;20031;-75
2022/12/04 07:45:21;;;;;;;43.28;17.88;;;;;;;-0.70;100.00;101431.78;4942990;28;20099;-75
2022/12/04 07:47:46;;;;;;;41.33;16.50;;;;;;;-0.67;100.00;101440.09;4946697;28;20102;-75
2022/12/04 07:50:11;;;;;;;90.18;29.77;;;;;;;-0.67;100.00;101445.19;4947904;28;20038;-74
2022/12/04 07:52:37;;;;;;;51.17;19.83;;;;;;;-0.66;100.00;101441.78;4946569;28;20039;-75
2022/12/04 07:55:06;;;;;;;39.97;16.13;;;;;;;-0.64;100.00;101446.78;4945214;28;20031;-74
2022/12/04 07:57:32;;;;;;;39.60;16.58;;;;;;;-0.59;100.00;101443.13;4956525;28;20606;-75
2022/12/04 07:59:58;;;;;;;39.72;15.88;;;;;;;-0.47;100.00;101448.56;4950799;28;20035;-75
2022/12/04 08:02:23;;;;;;;42.22;19.95;;;;;;;-0.43;100.00;101450.13;4945777;28;20122;-75
2022/12/04 08:04:49;;;;;;;40.97;15.98;;;;;;;-0.47;100.00;101446.88;4945993;28;20031;-74
2022/12/04 08:07:14;;;;;;;41.08;16.33;;;;;;;-0.49;100.00;101443.56;4948769;28;20499;-75
2022/12/04 08:09:40;;;;;;;41.97;16.40;;;;;;;-0.45;100.00;101449.34;4951039;28;20448;-75
2022/12/04 08:12:06;;;;;;;46.22;17.58;;;;;;;-0.46;100.00;101442.59;4963526;28;20052;-74
2022/12/04 08:14:31;;;;;;;48.45;18.02;;;;;;;-0.47;100.00;101439.22;4944629;28;20093;-75
2022/12/04 08:16:57;;;;;;;43.70;17.55;;;;;;;-0.29;100.00;101444.38;4945274;28;20054;-75
2022/12/04 08:19:22;;;;;;;42.53;17.63;;;;;;;-0.32;100.00;101441.97;4940678;28;20040;-75
2022/12/04 08:21:48;;;;;;;34.40;15.13;;;;;;;-0.30;100.00;101447.81;4933324;28;20102;-74
2022/12/04 08:24:13;;;;;;;43.95;16.85;;;;;;;-0.20;100.00;101437.13;4945000;28;20027;-76
2022/12/04 08:26:38;;;;;;;42.50;16.63;;;;;;;-0.31;100.00;101436.81;4932985;28;20845;-76
2022/12/04 08:29:05;;;;;;;37.95;15.98;;;;;;;-0.27;100.00;101443.41;4946346;28;20028;-76
2022/12/04 08:31:33;;;;;;;35.35;14.18;;;;;;;-0.22;99.59;101438.09;4948175;28;20795;-76
2022/12/04 08:34:01;;;;;;;34.25;15.82;;;;;;;-0.24;98.39;101440.72;4961332;28;20082;-76
2022/12/04 08:36:27;;;;;;;37.28;14.73;;;;;;;-0.26;98.66;101431.50;4963242;28;20055;-76
2022/12/04 08:38:52;;;;;;;38.88;15.93;;;;;;;-0.19;98.89;101440.50;4964865;28;20027;-76
2022/12/04 08:41:22;;;;;;;36.47;15.57;;;;;;;-0.18;98.34;101447.25;4944172;28;20783;-77
2022/12/04 08:43:48;;;;;;;35.28;14.82;;;;;;;-0.20;98.09;101443.97;4946757;28;20043;-76
2022/12/04 08:46:17;;;;;;;31.67;15.30;;;;;;;-0.12;98.06;101443.59;4946188;28;20690;-74
2022/12/04 08:48:44;;;;;;;37.75;15.52;;;;;;;-0.18;98.60;101449.00;4944324;28;20059;-75
2022/12/04 08:51:19;;;;;;;34.28;14.77;;;;;;;-0.17;98.00;101440.44;4937868;28;20066;-75
2022/12/04 08:53:45;;;;;;;30.35;13.57;;;;;;;-0.15;96.61;101438.63;4948494;28;20140;-75
2022/12/04 08:56:10;;;;;;;31.23;13.52;;;;;;;-0.10;95.89;101434.97;4945105;28;20071;-75
2022/12/04 08:58:36;;;;;;;32.50;14.75;;;;;;;-0.14;95.98;101427.56;4947184;28;20082;-75
2022/12/04 09:01:07;;;;;;;30.73;13.52;;;;;;;-0.14;96.35;101440.31;4925566;28;20702;-75
2022/12/04 09:03:33;;;;;;;28.00;13.18;;;;;;;-0.16;96.88;101439.56;4957554;28;20043;-77
2022/12/04 09:06:00;;;;;;;29.63;13.40;;;;;;;-0.13;95.99;101439.38;4945706;28;20054;-75
2022/12/04 09:08:26;;;;;;;28.95;13.30;;;;;;;-0.12;96.21;101438.50;4928618;29;20043;-77
2022/12/04 09:10:52;;;;;;;27.80;13.30;;;;;;;-0.11;96.18;101435.91;4941706;28;20078;-77
2022/12/04 09:13:17;;;;;;;26.17;12.07;;;;;;;-0.11;96.07;101437.63;4946197;28;20027;-75
2022/12/04 09:15:43;;;;;;;28.25;12.75;;;;;;;-0.04;95.23;101441.50;4951724;28;20047;-77
2022/12/04 09:18:08;;;;;;;27.45;12.27;;;;;;;-0.08;95.62;101447.66;4944247;28;20031;-75
2022/12/04 09:20:34;;;;;;;25.05;12.25;;;;;;;-0.02;95.50;101440.56;4945191;28;20065;-75
2022/12/04 09:22:59;;;;;;;27.42;12.60;;;;;;;0.03;95.70;101440.34;4966313;28;20102;-75
2022/12/04 09:25:24;;;;;;;27.02;12.27;;;;;;;0.00;94.46;101440.50;4945455;28;20515;-75
2022/12/04 09:27:50;;;;;;;26.90;12.70;;;;;;;-0.03;94.15;101446.53;4962834;28;20035;-74
2022/12/04 09:30:16;;;;;;;30.15;13.45;;;;;;;0.08;93.83;101432.47;4957511;28;20035;-75
2022/12/04 09:32:41;;;;;;;30.08;12.80;;;;;;;0.05;93.72;101438.53;4953124;28;20043;-75
2022/12/04 09:35:07;;;;;;;37.30;17.33;;;;;;;0.10;94.27;101439.16;4942371;28;20042;-75
2022/12/04 09:37:35;;;;;;;31.35;14.80;;;;;;;0.17;93.37;101429.47;4929487;28;20051;-76
2022/12/04 09:40:01;;;;;;;24.98;11.63;;;;;;;0.19;92.51;101438.72;4961835;28;20066;-77
2022/12/04 09:42:44;;;;;;;27.17;12.40;;;;;;;0.19;92.73;101443.00;4937347;28;21357;-76
2022/12/04 09:45:17;;;;;;;26.20;11.63;;;;;;;0.18;93.46;101437.06;4942311;28;20119;-74
2022/12/04 09:47:45;;;;;;;27.85;11.85;;;;;;;0.26;93.47;101438.41;4947151;28;20031;-74
2022/12/04 09:50:23;;;;;;;27.73;12.10;;;;;;;0.22;92.18;101442.84;4946714;28;20035;-75
2022/12/04 09:53:13;;;;;;;27.67;11.98;;;;;;;0.17;92.98;101450.72;4942996;28;20082;-75
2022/12/04 09:55:52;;;;;;;23.80;11.38;;;;;;;0.22;92.18;101454.78;4940582;28;20067;-75
2022/12/04 09:58:22;;;;;;;24.83;11.43;;;;;;;0.18;92.64;101451.53;4925553;29;20035;-75
2022/12/04 10:00:50;;;;;;;28.83;11.95;;;;;;;0.19;92.89;101448.91;4925492;28;20206;-75
2022/12/04 10:03:29;;;;;;;23.55;11.43;;;;;;;0.34;91.98;101449.91;4940976;28;20388;-76
2022/12/04 10:06:00;;;;;;;24.55;11.85;;;;;;;0.33;90.18;101449.97;4939340;28;20045;-75
2022/12/04 10:08:40;;;;;;;23.20;10.95;;;;;;;0.34;90.93;101446.50;4949875;28;20038;-75
2022/12/04 10:11:13;;;;;;;22.00;10.48;;;;;;;0.45;91.21;101449.38;4930851;28;20060;-77
2022/12/04 10:13:55;;;;;;;22.70;10.50;;;;;;;0.35;91.49;101451.56;4939803;28;20044;-75
2022/12/04 10:16:32;;;;;;;23.60;11.20;;;;;;;0.35;91.00;101446.44;4946989;28;20063;-75
2022/12/04 10:19:09;;;;;;;21.13;9.98;;;;;;;0.36;90.77;101439.66;4958010;28;20090;-75
2022/12/04 10:21:45;;;;;;;27.30;12.18;;;;;;;0.34;91.77;101437.16;4949771;28;20125;-75
2022/12/04 10:24:36;;;;;;;27.15;10.93;;;;;;;0.35;92.01;101443.91;4936674;28;20047;-75
2022/12/04 10:27:09;;;;;;;25.20;11.68;;;;;;;0.41;91.45;101437.66;4947261;28;20048;-75
2022/12/04 10:29:38;;;;;;;25.48;11.60;;;;;;;0.42;91.60;101434.22;4949723;28;20031;-74
2022/12/04 10:32:18;;;;;;;24.27;11.15;;;;;;;0.39;91.50;101434.38;4945243;28;20043;-75
2022/12/04 10:34:45;;;;;;;18.83;10.48;;;;;;;0.41;91.91;101439.41;4947338;28;20476;-75
2022/12/04 10:37:12;;;;;;;22.48;11.00;;;;;;;0.54;90.94;101436.16;4948865;28;20043;-75
2022/12/04 10:39:54;;;;;;;21.88;10.35;;;;;;;0.53;90.84;101428.63;4941163;28;20357;-75
2022/12/04 10:42:37;;;;;;;22.70;10.95;;;;;;;0.47;90.71;101423.78;4946365;28;20039;-75
2022/12/04 10:45:06;;;;;;;25.13;10.23;;;;;;;0.57;90.54;101428.38;4941745;28;20067;-75
2022/12/04 10:47:32;;;;;;;25.20;10.88;;;;;;;0.60;89.50;101418.91;4946628;28;20040;-75
2022/12/04 10:50:11;;;;;;;19.63;10.05;;;;;;;0.67;88.47;101426.19;4950925;28;20082;-75
2022/12/04 10:52:37;;;;;;;22.60;10.18;;;;;;;0.61;89.08;101433.34;4950016;28;20059;-77
2022/12/04 10:55:03;;;;;;;19.13;9.52;;;;;;;0.65;89.01;101422.06;4961179;28;20709;-75
2022/12/04 10:57:42;;;;;;;20.13;9.65;;;;;;;0.62;88.90;101417.91;4945031;28;20055;-75
2022/12/04 11:00:30;;;;;;;19.77;9.63;;;;;;;0.72;88.03;101423.41;4949311;28;20078;-75
2022/12/04 11:02:59;;;;;;;20.13;9.32;;;;;;;0.81;86.64;101414.44;4945935;28;20062;-74
2022/12/04 11:05:30;;;;;;;20.48;9.52;;;;;;;0.75;86.39;101418.97;4946636;28;20043;-75
2022/12/04 11:07:57;;;;;;;23.58;11.05;;;;;;;0.70;87.91;101410.72;4938467;28;20031;-75
2022/12/04 11:10:39;;;;;;;20.75;10.32;;;;;;;0.65;88.49;101406.75;4946726;28;20465;-75
2022/12/04 11:13:11;;;;;;;26.23;11.15;;;;;;;0.72;88.56;101401.25;4948682;28;20038;-75
2022/12/04 11:15:44;;;;;;;24.20;11.60;;;;;;;0.66;87.78;101395.63;4944866;28;20043;-75
2022/12/04 11:18:23;;;;;;;25.10;11.85;;;;;;;0.57;88.11;101392.63;4931442;29;20058;-75
2022/12/04 11:20:56;;;;;;;29.33;11.88;;;;;;;0.61;88.90;101392.50;4951208;28;20078;-75
2022/12/04 11:23:22;;;;;;;;;;;;;;;0.57;88.29;101389.28;4967241;28;20393;-75
2022/12/04 11:25:51;;;;;;;23.20;10.82;;;;;;;0.65;88.53;101386.31;4947065;28;19925;-74
2022/12/04 11:28:20;;;;;;;23.45;10.88;;;;;;;0.58;87.48;101386.66;4950654;28;20043;-75
2022/12/04 11:30:49;;;;;;;22.40;10.60;;;;;;;0.58;87.30;101378.97;4941431;28;20066;-74
2022/12/04 11:33:19;;;;;;;25.45;11.75;;;;;;;0.61;87.64;101382.28;4952741;28;20412;-75
2022/12/04 11:35:54;;;;;;;25.08;10.68;;;;;;;0.67;87.88;101384.53;4947068;28;20170;-75